Time;durP1;ratioP1;P1;durP2;ratioP2;P2;SDS_P1;SDS_P2;PMS_P1;PMS_P2;Temp;Humidity;BMP_temperature;BMP_pressure;BME280_temperature;BME280_humidity;BME280_pressure;Samples;Min_cycle;Max_cycle;Signal;HPM_P1;HPM_P2
2020/12/18 00:00:49;;;;;;;1.80;0.20;;;8.70;99.90;;;;;;5060297;28;20284;-56
2020/12/18 00:03:14;;;;;;;1.70;0.20;;;8.60;99.90;;;;;;5056016;28;20213;-58
2020/12/18 00:05:42;;;;;;;1.90;0.50;;;8.60;99.90;;;;;;5057903;28;20270;-57
2020/12/18 00:08:07;;;;;;;2.53;0.70;;;8.60;99.90;;;;;;5057008;28;20185;-58
2020/12/18 00:10:33;;;;;;;1.70;0.20;;;8.50;99.90;;;;;;5057090;28;20820;-57
2020/12/18 00:12:58;;;;;;;2.43;0.60;;;8.30;99.90;;;;;;5056935;28;20619;-58
2020/12/18 00:15:26;;;;;;;4.53;1.17;;;8.10;99.90;;;;;;5058089;28;20196;-57
2020/12/18 00:17:51;;;;;;;1.70;0.20;;;8.00;99.90;;;;;;5053361;28;20192;-58
2020/12/18 00:20:17;;;;;;;1.70;0.20;;;8.00;99.90;;;;;;5057094;28;20472;-58
2020/12/18 00:22:42;;;;;;;4.80;2.57;;;7.90;99.90;;;;;;5058408;28;20240;-58
2020/12/18 00:25:08;;;;;;;1.70;0.20;;;7.90;99.90;;;;;;5054856;28;20212;-58
2020/12/18 00:27:33;;;;;;;1.70;0.20;;;7.90;99.90;;;;;;5056034;28;20587;-58
2020/12/18 00:29:59;;;;;;;1.70;0.20;;;7.90;99.90;;;;;;5057170;28;20674;-58
2020/12/18 00:32:24;;;;;;;2.00;0.63;;;7.90;99.90;;;;;;5054678;28;20213;-58
2020/12/18 00:34:50;;;;;;;1.70;0.20;;;7.90;99.90;;;;;;5058552;28;20567;-58
2020/12/18 00:37:16;;;;;;;1.70;0.20;;;7.80;99.90;;;;;;5056517;28;20302;-58
2020/12/18 00:39:42;;;;;;;1.80;0.20;;;7.80;99.90;;;;;;5058171;28;20511;-58
2020/12/18 00:42:07;;;;;;;1.70;0.20;;;7.80;99.90;;;;;;5062936;28;20219;-57
2020/12/18 00:44:33;;;;;;;1.70;0.20;;;7.80;99.90;;;;;;5054969;28;20188;-58
2020/12/18 00:46:58;;;;;;;1.70;0.20;;;7.80;99.90;;;;;;5055026;28;20703;-58
2020/12/18 00:49:24;;;;;;;1.70;0.20;;;7.80;99.90;;;;;;5056602;28;20716;-57
2020/12/18 00:51:53;;;;;;;1.70;0.20;;;7.90;99.90;;;;;;5054489;28;20215;-58
2020/12/18 00:54:19;;;;;;;1.70;0.20;;;7.90;99.90;;;;;;5056357;28;20676;-57
2020/12/18 00:56:45;;;;;;;2.67;1.77;;;7.90;99.90;;;;;;5061975;28;20488;-57
2020/12/18 00:59:11;;;;;;;1.70;0.20;;;7.80;99.90;;;;;;5055467;28;20664;-58
2020/12/18 01:01:36;;;;;;;1.70;0.20;;;7.80;99.90;;;;;;5060258;28;20463;-58
2020/12/18 01:04:03;;;;;;;1.70;0.20;;;7.80;99.90;;;;;;5057472;28;20177;-58
2020/12/18 01:06:28;;;;;;;1.70;0.20;;;7.70;99.90;;;;;;5055060;28;20652;-59
2020/12/18 01:08:54;;;;;;;1.70;0.20;;;7.70;99.90;;;;;;5052392;28;20511;-58
2020/12/18 01:11:19;;;;;;;1.70;0.20;;;7.70;99.90;;;;;;5058159;28;20232;-58
2020/12/18 01:13:45;;;;;;;1.70;0.20;;;7.70;99.90;;;;;;5054385;28;20613;-58
2020/12/18 01:16:12;;;;;;;1.70;0.20;;;7.70;99.90;;;;;;5059631;28;20184;-57
2020/12/18 01:18:38;;;;;;;1.70;0.20;;;7.70;99.90;;;;;;5053994;28;20857;-58
2020/12/18 01:21:04;;;;;;;1.70;0.20;;;7.70;99.90;;;;;;5058632;28;20490;-58
2020/12/18 01:23:29;;;;;;;1.70;0.20;;;7.70;99.90;;;;;;5061550;28;20469;-57
2020/12/18 01:25:55;;;;;;;1.70;0.20;;;7.60;99.90;;;;;;5055954;28;20181;-58
2020/12/18 01:28:20;;;;;;;1.70;0.20;;;7.60;99.90;;;;;;5058733;28;20196;-58
2020/12/18 01:30:46;;;;;;;1.70;0.20;;;7.60;99.90;;;;;;5064808;28;20590;-59
2020/12/18 01:33:11;;;;;;;1.70;0.20;;;7.60;99.90;;;;;;5054826;28;20699;-59
2020/12/18 01:35:37;;;;;;;1.70;0.20;;;7.50;99.90;;;;;;5059324;28;20664;-58
2020/12/18 01:38:03;;;;;;;1.70;0.20;;;7.50;99.90;;;;;;5060973;28;20276;-58
2020/12/18 01:40:28;;;;;;;1.70;0.20;;;7.50;99.90;;;;;;5053883;28;20212;-58
2020/12/18 01:42:54;;;;;;;1.70;0.20;;;7.50;99.90;;;;;;5057669;28;20213;-58
2020/12/18 01:45:19;;;;;;;1.70;0.20;;;7.40;99.90;;;;;;5058979;28;20215;-58
2020/12/18 01:47:46;;;;;;;1.70;0.20;;;7.30;99.90;;;;;;5057527;28;20670;-58
2020/12/18 01:50:11;;;;;;;1.70;0.20;;;7.20;99.90;;;;;;5044456;28;20282;-58
2020/12/18 01:52:37;;;;;;;1.70;0.20;;;7.10;99.90;;;;;;5057828;28;20538;-58
2020/12/18 01:55:05;;;;;;;1.70;0.20;;;7.10;99.90;;;;;;5056655;28;20196;-58
2020/12/18 01:57:33;;;;;;;1.70;0.20;;;7.10;99.90;;;;;;5063714;28;20484;-58
2020/12/18 02:00:06;;;;;;;1.70;0.20;;;7.10;99.90;;;;;;5055843;28;20463;-58
2020/12/18 02:02:31;;;;;;;1.70;0.20;;;7.00;99.90;;;;;;5064147;28;20462;-58
2020/12/18 02:04:57;;;;;;;1.70;0.20;;;7.00;99.90;;;;;;5064833;28;20883;-58
2020/12/18 02:07:24;;;;;;;1.90;0.60;;;7.10;99.90;;;;;;5065837;28;20180;-58
2020/12/18 02:09:50;;;;;;;1.80;0.20;;;7.10;99.90;;;;;;5058458;28;20189;-58
2020/12/18 02:12:17;;;;;;;1.70;0.20;;;7.00;99.90;;;;;;5057651;28;20546;-58
2020/12/18 02:14:46;;;;;;;1.70;0.20;;;7.00;99.90;;;;;;5059155;28;20450;-58
2020/12/18 02:17:12;;;;;;;1.70;0.20;;;7.00;99.90;;;;;;5066917;28;20557;-58
2020/12/18 02:19:41;;;;;;;1.70;0.20;;;7.10;99.90;;;;;;5061087;28;20486;-58
2020/12/18 02:22:12;;;;;;;1.70;0.20;;;7.20;99.90;;;;;;5059000;28;20212;-58
2020/12/18 02:24:40;;;;;;;2.20;1.03;;;7.30;99.90;;;;;;5060503;28;20431;-58
2020/12/18 02:27:05;;;;;;;1.70;0.20;;;7.30;99.90;;;;;;5058774;28;20431;-59
2020/12/18 02:29:31;;;;;;;1.70;0.20;;;7.30;99.90;;;;;;5060352;28;20871;-58
2020/12/18 02:31:56;;;;;;;1.80;0.30;;;7.20;99.90;;;;;;5059477;28;20234;-58
2020/12/18 02:34:23;;;;;;;1.70;0.20;;;7.10;99.90;;;;;;5059454;28;20188;-56
2020/12/18 02:36:49;;;;;;;1.70;0.20;;;7.20;99.90;;;;;;5062733;28;20234;-57
2020/12/18 02:39:14;;;;;;;1.70;0.20;;;7.20;99.90;;;;;;5058329;28;20458;-56
2020/12/18 02:41:40;;;;;;;1.90;0.50;;;7.20;99.90;;;;;;5057651;28;20830;-57
2020/12/18 02:44:06;;;;;;;1.70;0.20;;;7.20;99.90;;;;;;5059409;28;20185;-56
2020/12/18 02:46:31;;;;;;;1.70;0.20;;;7.20;99.90;;;;;;5055549;28;20177;-56
2020/12/18 02:48:57;;;;;;;1.80;0.40;;;7.20;99.90;;;;;;5059534;28;20680;-57
2020/12/18 02:51:22;;;;;;;1.70;0.20;;;7.20;99.90;;;;;;5057995;28;20205;-57
2020/12/18 02:53:48;;;;;;;1.70;0.20;;;7.20;99.90;;;;;;5063704;28;20663;-57
2020/12/18 02:56:13;;;;;;;1.70;0.20;;;7.20;99.90;;;;;;5056700;28;20193;-57
2020/12/18 02:58:38;;;;;;;1.70;0.20;;;7.20;99.90;;;;;;5058503;28;20181;-58
2020/12/18 03:01:04;;;;;;;1.70;0.20;;;7.20;99.90;;;;;;5059041;28;20676;-57
2020/12/18 03:03:29;;;;;;;1.70;0.20;;;7.20;99.90;;;;;;5055504;28;20185;-57
2020/12/18 03:05:55;;;;;;;1.70;0.20;;;7.20;99.90;;;;;;5059678;28;20232;-58
2020/12/18 03:08:20;;;;;;;1.70;0.20;;;7.20;99.90;;;;;;5062438;28;20189;-58
2020/12/18 03:10:46;;;;;;;1.70;0.20;;;7.20;99.90;;;;;;5057334;28;20695;-57
2020/12/18 03:13:11;;;;;;;1.70;0.20;;;7.20;99.90;;;;;;5065086;28;20209;-57
2020/12/18 03:15:37;;;;;;;1.70;0.20;;;7.10;99.90;;;;;;5057914;28;20185;-57
2020/12/18 03:18:02;;;;;;;1.70;0.20;;;7.00;99.90;;;;;;5056270;28;20544;-57
2020/12/18 03:20:28;;;;;;;1.70;0.20;;;6.90;99.90;;;;;;5061116;28;20209;-57
2020/12/18 03:22:53;;;;;;;1.77;0.27;;;6.90;99.90;;;;;;5059772;28;20213;-57
2020/12/18 03:25:19;;;;;;;1.70;0.20;;;6.80;99.90;;;;;;5058739;28;20260;-57
2020/12/18 03:27:44;;;;;;;4.93;2.10;;;6.70;99.90;;;;;;5059692;28;20648;-57
2020/12/18 03:30:10;;;;;;;1.70;0.20;;;6.70;99.90;;;;;;5057431;28;20271;-57
2020/12/18 03:32:36;;;;;;;1.70;0.20;;;6.60;99.90;;;;;;5057433;28;20224;-57
2020/12/18 03:35:05;;;;;;;3.80;3.07;;;6.50;99.90;;;;;;5065453;28;20479;-57
2020/12/18 03:37:31;;;;;;;1.80;0.20;;;6.40;99.90;;;;;;5058441;28;20246;-57
2020/12/18 03:39:57;;;;;;;1.70;0.20;;;6.40;99.90;;;;;;5053720;28;20795;-58
2020/12/18 03:42:22;;;;;;;1.70;0.20;;;6.40;99.90;;;;;;5061737;28;20467;-57
2020/12/18 03:44:48;;;;;;;1.70;0.20;;;6.50;99.90;;;;;;5058170;28;20184;-57
2020/12/18 03:47:13;;;;;;;1.70;0.20;;;6.50;99.90;;;;;;5062944;28;20714;-58
2020/12/18 03:49:39;;;;;;;4.10;3.80;;;6.50;99.90;;;;;;5059156;28;20190;-57
2020/12/18 03:52:04;;;;;;;1.70;0.20;;;6.50;99.90;;;;;;5054612;28;20569;-57
2020/12/18 03:54:30;;;;;;;1.70;0.20;;;6.40;99.90;;;;;;5061188;28;20185;-57
2020/12/18 03:56:55;;;;;;;1.70;0.20;;;6.40;99.90;;;;;;5058483;28;20212;-57
2020/12/18 03:59:21;;;;;;;1.70;0.20;;;6.30;99.90;;;;;;5061789;28;20205;-57
2020/12/18 04:01:46;;;;;;;2.10;1.13;;;6.40;99.90;;;;;;5067385;28;20304;-57
2020/12/18 04:04:11;;;;;;;1.70;0.20;;;6.40;99.90;;;;;;5056445;28;20185;-57
2020/12/18 04:06:37;;;;;;;1.70;0.20;;;6.30;99.90;;;;;;5062827;28;20185;-57
2020/12/18 04:09:03;;;;;;;1.70;0.20;;;6.30;99.90;;;;;;5062327;28;20283;-57
2020/12/18 04:11:28;;;;;;;1.70;0.20;;;6.30;99.90;;;;;;5065891;28;20766;-57
2020/12/18 04:13:54;;;;;;;1.70;0.20;;;6.20;99.90;;;;;;5057710;28;20181;-57
2020/12/18 04:16:19;;;;;;;1.70;0.20;;;6.30;99.90;;;;;;5062018;28;20192;-57
2020/12/18 04:18:45;;;;;;;1.70;0.20;;;6.20;99.90;;;;;;5059325;28;20629;-57
2020/12/18 04:21:10;;;;;;;1.70;0.20;;;6.20;99.90;;;;;;5058533;28;20208;-57
2020/12/18 04:23:37;;;;;;;1.73;0.20;;;6.20;99.90;;;;;;5062927;28;20181;-57
2020/12/18 04:26:02;;;;;;;2.23;0.93;;;6.20;99.90;;;;;;5059979;28;20190;-57
2020/12/18 04:28:28;;;;;;;1.70;0.20;;;6.20;99.90;;;;;;5056440;28;20435;-57
2020/12/18 04:30:53;;;;;;;1.70;0.20;;;6.20;99.90;;;;;;5058798;28;20216;-57
2020/12/18 04:33:19;;;;;;;7.20;5.17;;;6.20;99.90;;;;;;5055925;28;20558;-57
2020/12/18 04:35:44;;;;;;;1.70;0.20;;;6.20;99.90;;;;;;5064972;28;20184;-57
2020/12/18 04:38:13;;;;;;;1.70;0.20;;;6.20;99.90;;;;;;5055134;28;20189;-57
2020/12/18 04:40:40;;;;;;;1.70;0.20;;;6.20;99.90;;;;;;5058574;28;20236;-58
2020/12/18 04:43:06;;;;;;;1.70;0.20;;;6.30;99.90;;;;;;5056207;28;20438;-57
2020/12/18 04:45:31;;;;;;;1.70;0.20;;;6.30;99.90;;;;;;5056893;28;20542;-57
2020/12/18 04:48:00;;;;;;;1.70;0.20;;;6.40;99.90;;;;;;5057178;28;20981;-57
2020/12/18 04:50:26;;;;;;;1.77;0.20;;;6.30;99.90;;;;;;5061788;28;20612;-58
2020/12/18 04:52:56;;;;;;;1.70;0.20;;;6.30;99.90;;;;;;5058814;28;20542;-57
2020/12/18 04:55:26;;;;;;;1.70;0.20;;;6.30;99.90;;;;;;5059490;28;20246;-57
2020/12/18 04:57:52;;;;;;;1.70;0.20;;;6.30;99.90;;;;;;5059112;28;20502;-57
2020/12/18 05:00:19;;;;;;;1.70;0.20;;;6.20;99.90;;;;;;5060146;28;20468;-57
2020/12/18 05:02:45;;;;;;;1.70;0.20;;;6.10;99.90;;;;;;5066543;28;20971;-58
2020/12/18 05:05:12;;;;;;;1.70;0.20;;;6.10;99.90;;;;;;5061588;28;20446;-57
2020/12/18 05:07:37;;;;;;;1.70;0.20;;;6.00;99.90;;;;;;5057247;28;20518;-58
2020/12/18 05:10:07;;;;;;;1.70;0.20;;;6.00;99.90;;;;;;5056678;28;20474;-57
2020/12/18 05:12:34;;;;;;;1.70;0.20;;;6.00;99.90;;;;;;5063409;28;20204;-57
2020/12/18 05:14:59;;;;;;;1.70;0.20;;;6.00;99.90;;;;;;5059995;28;20479;-57
2020/12/18 05:17:27;;;;;;;1.70;0.20;;;6.00;99.90;;;;;;5062978;28;20442;-57
2020/12/18 05:19:52;;;;;;;1.70;0.20;;;6.00;99.90;;;;;;5058095;28;20211;-57
2020/12/18 05:22:23;;;;;;;1.70;0.20;;;6.00;99.90;;;;;;5056451;28;20456;-57
2020/12/18 05:24:50;;;;;;;1.70;0.20;;;6.00;99.90;;;;;;5062636;28;22256;-57
2020/12/18 05:27:16;;;;;;;1.70;0.20;;;5.90;99.90;;;;;;5056696;28;20534;-57
2020/12/18 05:29:42;;;;;;;1.70;0.20;;;5.90;99.90;;;;;;5059555;28;20467;-57
2020/12/18 05:32:10;;;;;;;1.70;0.20;;;6.00;99.90;;;;;;5065848;28;20629;-57
2020/12/18 05:34:39;;;;;;;1.80;0.40;;;5.90;99.90;;;;;;5057931;28;21002;-57
2020/12/18 05:37:04;;;;;;;1.70;0.20;;;6.00;99.90;;;;;;5057418;28;20443;-57
2020/12/18 05:39:33;;;;;;;1.70;0.20;;;5.90;99.90;;;;;;5059412;28;20466;-57
2020/12/18 05:42:00;;;;;;;1.70;0.20;;;5.90;99.90;;;;;;5061991;28;20204;-57
2020/12/18 05:44:28;;;;;;;1.70;0.20;;;5.80;99.90;;;;;;5064133;28;20486;-57
2020/12/18 05:47:05;;;;;;;1.70;0.20;;;5.80;99.90;;;;;;5058690;28;20424;-58
2020/12/18 05:49:35;;;;;;;1.70;0.20;;;5.80;99.90;;;;;;5058570;28;20450;-58
2020/12/18 05:52:03;;;;;;;1.70;0.20;;;5.70;99.90;;;;;;5054426;28;20459;-58
2020/12/18 05:54:33;;;;;;;1.70;0.20;;;5.70;99.90;;;;;;5061725;28;20564;-58
2020/12/18 05:57:16;;;;;;;1.70;0.20;;;5.70;99.90;;;;;;5057018;28;20450;-58
2020/12/18 05:59:48;;;;;;;1.70;0.20;;;5.80;99.90;;;;;;5056781;28;21016;-58
2020/12/18 06:02:15;;;;;;;1.70;0.20;;;5.70;99.90;;;;;;5060929;28;20478;-58
2020/12/18 06:04:42;;;;;;;1.70;0.20;;;5.70;99.90;;;;;;5055032;28;20428;-58
2020/12/18 06:07:08;;;;;;;1.70;0.20;;;5.70;99.90;;;;;;5055857;28;20419;-58
2020/12/18 06:09:38;;;;;;;2.33;0.80;;;5.60;99.90;;;;;;5056892;28;20843;-59
2020/12/18 06:12:08;;;;;;;4.53;4.13;;;5.50;99.90;;;;;;5053780;28;20205;-58
2020/12/18 06:14:34;;;;;;;1.70;0.20;;;5.50;99.90;;;;;;5063099;28;20440;-58
2020/12/18 06:17:06;;;;;;;1.70;0.20;;;5.50;99.90;;;;;;5062257;28;20442;-58
2020/12/18 06:19:37;;;;;;;1.70;0.20;;;5.50;99.90;;;;;;5055834;28;20810;-57
2020/12/18 06:22:03;;;;;;;1.70;0.20;;;5.60;99.90;;;;;;5052252;28;20203;-58
2020/12/18 06:24:28;;;;;;;1.70;0.20;;;5.60;99.90;;;;;;5061741;28;20430;-57
2020/12/18 06:26:55;;;;;;;1.70;0.20;;;5.70;99.90;;;;;;5056807;28;20181;-57
2020/12/18 06:29:25;;;;;;;1.70;0.20;;;5.70;99.90;;;;;;5056333;28;20192;-57
2020/12/18 06:31:51;;;;;;;1.70;0.20;;;5.70;99.90;;;;;;5056828;28;20460;-57
2020/12/18 06:34:28;;;;;;;1.80;0.30;;;5.70;99.90;;;;;;5059494;28;20799;-57
2020/12/18 06:36:57;;;;;;;1.80;0.57;;;5.70;99.90;;;;;;5058957;28;20434;-57
2020/12/18 06:39:34;;;;;;;1.70;0.20;;;5.70;99.90;;;;;;5060676;28;20467;-57
2020/12/18 06:42:14;;;;;;;1.70;0.20;;;5.70;99.90;;;;;;5058783;28;20466;-56
2020/12/18 06:44:51;;;;;;;1.70;0.20;;;5.80;99.90;;;;;;5070163;28;20941;-59
2020/12/18 06:47:27;;;;;;;1.70;0.20;;;5.80;99.90;;;;;;5079229;28;20486;-58
2020/12/18 06:49:56;;;;;;;1.70;0.20;;;5.80;99.90;;;;;;5070931;28;20445;-57
2020/12/18 06:52:46;;;;;;;1.70;0.20;;;5.80;99.90;;;;;;5062971;28;20439;-57
2020/12/18 06:55:14;;;;;;;1.70;0.20;;;5.70;99.90;;;;;;5062160;28;20435;-57
2020/12/18 06:57:40;;;;;;;1.70;0.20;;;5.70;99.90;;;;;;5060467;28;20518;-57
2020/12/18 07:00:21;;;;;;;1.70;0.20;;;5.70;99.90;;;;;;5062032;28;20522;-57
2020/12/18 07:02:46;;;;;;;1.70;0.20;;;5.70;99.90;;;;;;5058641;28;20474;-57
2020/12/18 07:05:35;;;;;;;1.70;0.20;;;5.60;99.90;;;;;;5058742;28;20508;-61
2020/12/18 07:08:12;;;;;;;1.70;0.20;;;5.60;99.90;;;;;;5059653;28;20683;-58
2020/12/18 07:10:46;;;;;;;1.70;0.20;;;5.50;99.90;;;;;;5064170;28;21103;-57
2020/12/18 07:13:14;;;;;;;1.70;0.20;;;5.50;99.90;;;;;;5059399;28;20458;-58
2020/12/18 07:15:43;;;;;;;1.70;0.20;;;5.50;99.90;;;;;;5045484;28;20469;-58
2020/12/18 07:18:18;;;;;;;1.70;0.20;;;5.50;99.90;;;;;;5063219;28;20516;-58
2020/12/18 07:20:51;;;;;;;1.70;0.20;;;5.50;99.90;;;;;;5060260;28;20529;-59
2020/12/18 07:23:18;;;;;;;1.70;0.20;;;5.50;99.90;;;;;;5061232;28;20234;-59
2020/12/18 07:25:44;;;;;;;1.70;0.20;;;5.50;99.90;;;;;;5065716;28;20534;-58
2020/12/18 07:28:10;;;;;;;1.70;0.20;;;5.40;99.90;;;;;;5060610;28;20439;-59
2020/12/18 07:30:44;;;;;;;1.70;0.20;;;5.40;99.90;;;;;;5063030;28;20506;-59
2020/12/18 07:33:11;;;;;;;1.70;0.20;;;5.40;99.90;;;;;;5063142;28;20451;-59
2020/12/18 07:35:51;;;;;;;1.70;0.30;;;5.40;99.90;;;;;;5060031;28;20538;-59
2020/12/18 07:38:17;;;;;;;1.70;0.20;;;5.40;99.90;;;;;;5063399;28;20534;-59
2020/12/18 07:40:44;;;;;;;1.70;0.20;;;5.40;99.90;;;;;;5060277;28;20880;-59
2020/12/18 07:43:12;;;;;;;1.70;0.20;;;5.40;99.90;;;;;;5062949;28;20454;-59
2020/12/18 07:45:43;;;;;;;1.80;0.20;;;5.30;99.90;;;;;;5052518;28;20441;-59
2020/12/18 07:48:15;;;;;;;1.70;0.20;;;5.30;99.90;;;;;;5062556;28;20470;-58
2020/12/18 07:50:52;;;;;;;1.70;0.20;;;5.30;99.90;;;;;;5061254;28;20196;-59
2020/12/18 07:53:21;;;;;;;1.70;0.20;;;5.30;99.90;;;;;;5066636;28;20471;-59
2020/12/18 07:56:10;;;;;;;1.70;0.20;;;5.20;99.90;;;;;;5064549;28;20230;-59
2020/12/18 07:58:49;;;;;;;1.70;0.20;;;5.20;99.90;;;;;;5059425;28;20446;-59
2020/12/18 08:01:19;;;;;;;2.50;2.17;;;5.20;99.90;;;;;;5059693;28;20542;-59
2020/12/18 08:03:49;;;;;;;1.70;0.20;;;5.20;99.90;;;;;;5062798;28;20446;-58
2020/12/18 08:06:20;;;;;;;1.70;0.20;;;5.20;99.90;;;;;;5064694;28;20181;-59
2020/12/18 08:08:51;;;;;;;1.70;0.20;;;5.20;99.90;;;;;;5059445;28;20562;-59
2020/12/18 08:11:18;;;;;;;1.70;0.20;;;5.20;99.90;;;;;;5059952;28;20463;-59
2020/12/18 08:13:44;;;;;;;1.70;0.20;;;5.20;99.90;;;;;;5057137;28;20442;-58
2020/12/18 08:16:11;;;;;;;1.70;0.20;;;5.30;99.90;;;;;;5061383;28;20501;-59
2020/12/18 08:18:37;;;;;;;1.70;0.20;;;5.30;99.90;;;;;;5058094;28;20444;-59
2020/12/18 08:21:05;;;;;;;1.70;0.20;;;5.40;99.90;;;;;;5046969;28;20509;-59
2020/12/18 08:23:34;;;;;;;1.70;0.20;;;5.50;99.90;;;;;;5066668;28;20491;-58
2020/12/18 08:26:02;;;;;;;1.70;0.20;;;5.50;99.90;;;;;;5061027;28;20452;-58
2020/12/18 08:28:29;;;;;;;1.73;0.20;;;5.50;99.90;;;;;;5065216;28;20576;-58
2020/12/18 08:30:56;;;;;;;1.70;0.20;;;5.60;99.90;;;;;;5059424;28;20245;-59
2020/12/18 08:33:22;;;;;;;1.80;0.57;;;5.60;99.90;;;;;;5059260;28;20450;-58
2020/12/18 08:35:52;;;;;;;1.70;0.20;;;5.60;99.90;;;;;;5058380;28;20444;-59
2020/12/18 08:38:17;;;;;;;1.70;0.20;;;5.60;99.90;;;;;;5061655;28;20504;-59
2020/12/18 08:40:43;;;;;;;1.70;0.20;;;5.60;99.90;;;;;;5057317;28;20458;-58
2020/12/18 08:43:10;;;;;;;1.70;0.20;;;5.70;99.90;;;;;;5058703;28;20507;-58
2020/12/18 08:45:43;;;;;;;1.70;0.20;;;5.70;99.90;;;;;;5059846;28;20432;-59
2020/12/18 08:48:10;;;;;;;1.70;0.20;;;5.70;99.90;;;;;;5057493;28;20478;-59
2020/12/18 08:50:39;;;;;;;1.70;0.20;;;5.70;99.90;;;;;;5057566;28;20448;-59
2020/12/18 08:53:15;;;;;;;1.70;0.20;;;5.70;99.90;;;;;;5061858;28;20513;-58
2020/12/18 08:55:41;;;;;;;1.70;0.20;;;5.70;99.90;;;;;;5053408;28;20446;-58
2020/12/18 08:58:09;;;;;;;1.70;0.20;;;5.70;99.90;;;;;;5059428;28;20491;-59
2020/12/18 09:00:35;;;;;;;1.70;0.20;;;5.80;99.90;;;;;;5046132;28;20985;-59
2020/12/18 09:03:01;;;;;;;1.70;0.20;;;5.90;99.90;;;;;;5062735;28;20606;-59
2020/12/18 09:05:42;;;;;;;1.70;0.20;;;5.90;99.90;;;;;;5054306;28;20510;-60
2020/12/18 09:08:15;;;;;;;1.70;0.20;;;6.00;99.90;;;;;;5057001;28;20439;-60
2020/12/18 09:10:41;;;;;;;1.70;0.20;;;6.00;99.90;;;;;;5068329;28;20439;-60
2020/12/18 09:13:17;;;;;;;1.70;0.20;;;5.90;99.90;;;;;;5063270;28;20517;-60
2020/12/18 09:16:04;;;;;;;1.70;0.20;;;6.00;99.90;;;;;;5061666;28;20622;-59
2020/12/18 09:18:35;;;;;;;1.70;0.20;;;6.00;99.90;;;;;;5057735;28;20469;-59
2020/12/18 09:21:09;;;;;;;1.70;0.20;;;6.00;99.90;;;;;;5059675;28;20471;-60
2020/12/18 09:23:36;;;;;;;3.83;2.10;;;6.00;99.90;;;;;;5059562;28;20447;-59
2020/12/18 09:26:03;;;;;;;1.70;0.20;;;6.10;99.90;;;;;;5063155;28;20958;-61
2020/12/18 09:28:36;;;;;;;1.80;0.40;;;6.10;99.90;;;;;;5071638;28;20506;-59
2020/12/18 09:31:03;;;;;;;1.70;0.20;;;6.00;99.90;;;;;;5065750;28;20457;-59
2020/12/18 09:33:32;;;;;;;1.70;0.20;;;6.00;99.90;;;;;;5065369;28;20435;-60
2020/12/18 09:35:59;;;;;;;1.97;0.80;;;5.90;99.90;;;;;;5056114;28;20443;-59
2020/12/18 09:38:45;;;;;;;3.13;2.50;;;5.90;99.90;;;;;;5060133;28;20469;-59
2020/12/18 09:41:13;;;;;;;1.70;0.30;;;5.80;99.90;;;;;;5059839;28;20549;-59
2020/12/18 09:43:40;;;;;;;2.00;0.90;;;5.80;99.90;;;;;;5058668;28;20879;-59
2020/12/18 09:46:11;;;;;;;1.70;0.20;;;5.90;99.90;;;;;;5060547;28;20443;-59
2020/12/18 09:48:38;;;;;;;2.30;1.63;;;5.90;99.90;;;;;;5039203;28;20439;-59
2020/12/18 09:51:03;;;;;;;1.80;0.40;;;5.90;99.90;;;;;;5062516;28;20467;-59
2020/12/18 09:53:30;;;;;;;1.90;0.70;;;6.00;99.90;;;;;;5057512;28;20427;-59
2020/12/18 09:55:56;;;;;;;1.70;0.20;;;6.10;99.90;;;;;;5040700;28;20203;-59
2020/12/18 09:58:21;;;;;;;1.77;0.30;;;6.20;99.90;;;;;;5056868;28;20447;-59
2020/12/18 10:00:48;;;;;;;1.70;0.20;;;6.20;99.90;;;;;;5055618;28;20220;-59
2020/12/18 10:03:13;;;;;;;2.57;1.37;;;6.20;99.90;;;;;;5060854;28;20228;-59
2020/12/18 10:05:39;;;;;;;1.77;0.30;;;6.20;99.90;;;;;;5061483;28;20440;-59
2020/12/18 10:08:04;;;;;;;1.70;0.20;;;6.20;99.90;;;;;;5061029;28;20180;-60
2020/12/18 10:10:31;;;;;;;1.70;0.20;;;6.20;99.90;;;;;;5062375;28;20246;-59
2020/12/18 10:12:58;;;;;;;1.70;0.20;;;6.30;99.90;;;;;;5051038;28;20209;-59
2020/12/18 10:15:24;;;;;;;1.70;0.20;;;6.30;99.90;;;;;;5065299;28;20520;-59
2020/12/18 10:17:50;;;;;;;1.70;0.20;;;6.40;99.90;;;;;;5066346;28;20459;-58
2020/12/18 10:20:16;;;;;;;1.70;0.20;;;6.40;99.90;;;;;;5073476;28;20517;-59
2020/12/18 10:22:41;;;;;;;1.70;0.20;;;6.50;99.90;;;;;;5076694;28;20466;-60
2020/12/18 10:25:07;;;;;;;1.90;0.60;;;6.40;99.90;;;;;;5072962;28;20451;-62
2020/12/18 10:27:34;;;;;;;1.90;0.80;;;6.40;99.90;;;;;;5075831;28;20187;-59
2020/12/18 10:29:59;;;;;;;1.70;0.20;;;6.40;99.90;;;;;;5071485;28;20435;-57
2020/12/18 10:32:26;;;;;;;2.50;2.30;;;6.40;99.90;;;;;;5049852;28;20500;-59
2020/12/18 10:34:52;;;;;;;1.73;0.20;;;6.40;99.90;;;;;;5062870;28;20196;-58
2020/12/18 10:37:18;;;;;;;1.90;0.40;;;6.50;99.90;;;;;;5061386;28;20443;-58
2020/12/18 10:39:43;;;;;;;1.70;0.20;;;6.50;99.90;;;;;;5060211;28;20459;-58
2020/12/18 10:42:09;;;;;;;5.30;4.20;;;6.40;99.90;;;;;;5063114;28;20565;-59
2020/12/18 10:44:35;;;;;;;2.73;2.40;;;6.30;99.90;;;;;;5063243;28;20172;-59
2020/12/18 10:47:01;;;;;;;2.00;0.70;;;6.20;99.90;;;;;;5062261;28;21068;-60
2020/12/18 10:49:27;;;;;;;1.70;0.20;;;6.20;99.90;;;;;;5065970;28;20443;-60
2020/12/18 10:51:53;;;;;;;1.70;0.20;;;6.20;99.90;;;;;;5058083;28;20459;-58
2020/12/18 10:54:18;;;;;;;5.60;3.83;;;6.30;99.90;;;;;;5057603;28;20188;-58
2020/12/18 10:56:56;;;;;;;7.03;5.00;;;6.30;99.90;;;;;;5057705;28;20189;-57
2020/12/18 10:59:22;;;;;;;1.70;0.20;;;6.00;99.90;;;;;;5063539;28;20205;-60
2020/12/18 11:01:55;;;;;;;41.27;18.53;;;6.00;99.90;;;;;;5062417;28;20479;-60
2020/12/18 11:04:20;;;;;;;1.70;0.20;;;6.00;99.90;;;;;;5060019;28;20441;-58
2020/12/18 11:06:47;;;;;;;1.70;0.20;;;6.00;99.90;;;;;;5061829;28;20439;-59
2020/12/18 11:09:13;;;;;;;1.70;0.20;;;6.10;99.90;;;;;;5028618;28;20189;-58
2020/12/18 11:11:38;;;;;;;2.07;1.17;;;6.20;99.90;;;;;;5056515;28;20452;-59
2020/12/18 11:14:04;;;;;;;1.70;0.20;;;6.20;99.90;;;;;;5061509;28;20426;-58
2020/12/18 11:16:29;;;;;;;1.80;0.47;;;6.20;99.90;;;;;;5067081;28;20327;-58
2020/12/18 11:18:55;;;;;;;1.70;0.20;;;6.30;99.90;;;;;;5062635;28;20180;-58
2020/12/18 11:21:20;;;;;;;5.13;4.63;;;6.40;99.90;;;;;;5058138;28;20251;-58
2020/12/18 11:23:46;;;;;;;7.33;3.93;;;6.40;99.90;;;;;;5061393;28;20201;-59
2020/12/18 11:26:12;;;;;;;1.70;0.20;;;6.30;99.90;;;;;;5065312;28;20560;-59
2020/12/18 11:28:38;;;;;;;1.80;0.30;;;6.40;99.90;;;;;;5069264;28;20177;-59
2020/12/18 11:31:05;;;;;;;1.73;0.20;;;6.40;99.90;;;;;;5055580;28;20625;-58
2020/12/18 11:33:31;;;;;;;1.80;0.50;;;6.40;99.90;;;;;;5058942;28;20506;-58
2020/12/18 11:35:57;;;;;;;14.03;8.23;;;6.40;99.90;;;;;;5062557;28;20963;-58
2020/12/18 11:38:22;;;;;;;1.70;0.20;;;6.40;99.90;;;;;;5062528;28;20440;-58
2020/12/18 11:40:48;;;;;;;1.70;0.20;;;6.50;99.90;;;;;;5057047;28;20280;-58
2020/12/18 11:43:13;;;;;;;1.70;0.20;;;6.40;99.90;;;;;;5062610;28;20216;-59
2020/12/18 11:45:39;;;;;;;1.70;0.20;;;6.50;99.90;;;;;;5060369;28;20260;-59
2020/12/18 11:48:05;;;;;;;1.73;0.20;;;6.60;99.90;;;;;;5056686;28;20182;-59
2020/12/18 11:50:30;;;;;;;1.70;0.20;;;6.70;99.90;;;;;;5059384;28;20185;-59
2020/12/18 11:52:57;;;;;;;1.80;0.20;;;6.70;99.90;;;;;;5062554;28;20576;-59
2020/12/18 11:55:24;;;;;;;1.70;0.20;;;6.70;99.90;;;;;;5058527;28;20184;-59
2020/12/18 11:57:49;;;;;;;1.80;0.40;;;6.60;99.90;;;;;;5062205;28;20488;-59
2020/12/18 12:00:19;;;;;;;1.70;0.20;;;6.60;99.90;;;;;;5055624;28;20547;-58
2020/12/18 12:02:49;;;;;;;1.70;0.30;;;6.60;99.90;;;;;;5059035;28;20893;-59
2020/12/18 12:05:18;;;;;;;1.90;0.57;;;6.50;99.90;;;;;;5056019;28;20441;-58
2020/12/18 12:07:44;;;;;;;6.60;4.90;;;6.40;99.90;;;;;;5057708;28;20957;-58
2020/12/18 12:10:10;;;;;;;1.90;0.83;;;6.30;99.90;;;;;;5061616;28;20434;-58
2020/12/18 12:12:36;;;;;;;1.70;0.20;;;6.30;99.90;;;;;;5061892;28;20512;-59
2020/12/18 12:15:03;;;;;;;1.70;0.20;;;6.30;99.90;;;;;;5056945;28;20447;-58
2020/12/18 12:17:29;;;;;;;1.73;0.20;;;6.30;99.90;;;;;;5059444;28;20510;-58
2020/12/18 12:19:54;;;;;;;1.70;0.20;;;6.50;99.90;;;;;;5063458;28;20980;-59
2020/12/18 12:22:20;;;;;;;1.70;0.20;;;6.60;99.90;;;;;;5055449;28;20456;-58
2020/12/18 12:24:45;;;;;;;1.73;0.20;;;6.60;99.90;;;;;;5056897;28;20193;-58
2020/12/18 12:27:12;;;;;;;1.80;0.40;;;6.50;99.90;;;;;;5062458;28;20189;-58
2020/12/18 12:29:38;;;;;;;6.63;2.90;;;6.50;99.90;;;;;;5055200;28;20875;-58
2020/12/18 12:32:05;;;;;;;2.30;0.90;;;6.50;99.90;;;;;;5063754;28;20502;-58
2020/12/18 12:34:31;;;;;;;1.80;0.40;;;6.50;99.90;;;;;;5054714;28;20439;-58
2020/12/18 12:37:00;;;;;;;1.73;0.30;;;6.40;99.90;;;;;;5060423;28;20515;-58
2020/12/18 12:39:26;;;;;;;2.87;0.37;;;6.30;99.90;;;;;;5062389;28;20463;-57
2020/12/18 12:41:52;;;;;;;1.70;0.20;;;6.20;99.90;;;;;;5058522;28;20946;-57
2020/12/18 12:44:18;;;;;;;38.60;18.00;;;6.20;99.90;;;;;;5061256;28;20514;-58
2020/12/18 12:46:43;;;;;;;1.73;0.30;;;6.10;99.90;;;;;;5059891;28;20247;-58
2020/12/18 12:49:09;;;;;;;1.70;0.20;;;6.10;99.90;;;;;;5063234;28;20251;-58
2020/12/18 12:51:35;;;;;;;8.63;2.73;;;6.10;99.90;;;;;;5048062;28;20201;-59
2020/12/18 12:54:01;;;;;;;3.33;2.40;;;6.10;99.90;;;;;;5060939;28;20440;-58
2020/12/18 12:56:27;;;;;;;5.20;2.77;;;6.10;99.90;;;;;;5071657;28;20187;-59
2020/12/18 12:58:52;;;;;;;1.70;0.30;;;6.20;99.90;;;;;;5071000;28;20249;-60